Cmt Otter — WDI8641 — position and weather

sailwx.info

Track history (hours):
 
Tides and Currents Weather Stations Pressure Air Temp Water Temp Dewpoint Dewpoint Depression Visibility Wind Speed Wind Dir Waves Ship Positions

Cmt Otter

Owner: Coeymans Marine Towing, Coeymans, NY. More information available from US FCC via Universal Licensing System and Coast Guard Vessel Documentation Center.

Last reported at 2018-Feb-01 16:35 UTC. Time now 2018-Feb-24 13:46 UTC.
Position N 40°40' W 074°01'.
Warning: this ship's position is 22 days out of date.

Length 20 m; draft 3 m.

Type: Towing. MMSI: 367740640.

Date/timePositionNaut miles runAvg speedWind from/ knotsBaromVisibWave heightAir tempDewpointWater temp
2018-Feb-01 16:35N 40°40' W 074°01'0 0.0
2018-Feb-01 16:30N 40°40' W 074°01'1 1.8
2018-Feb-01 16:00N 40°40' W 074°02'2 3.1
2018-Feb-01 15:30N 40°41' W 074°01'3 5.9
2018-Feb-01 15:00N 40°43' W 073°58'  
2018-Jan-25 14:18N 40°40' W 074°01'0 1.4
2018-Jan-25 14:00N 40°40' W 074°00'0 0.0
2018-Jan-25 13:30N 40°40' W 074°00'1 1.6
2018-Jan-25 13:00N 40°40' W 074°01'0 0.8
2018-Jan-25 12:30N 40°40' W 074°01'0 0.0
2018-Jan-25 12:00N 40°40' W 074°01'0 0.0
2018-Jan-25 11:30N 40°40' W 074°01'1 2.3
2018-Jan-25 11:00N 40°39' W 074°02'0 0.0
2018-Jan-25 10:30N 40°39' W 074°02'1 1.1
2018-Jan-25 10:00N 40°39' W 074°02'2 4.2
2018-Jan-25 09:30N 40°37' W 074°03'2 4.7
2018-Jan-25 08:59N 40°35' W 074°01'3 4.4
2018-Jan-25 08:22N 40°34' W 073°58'3 6.8
2018-Jan-25 07:57N 40°34' W 073°54'6 1.4
2018-Jan-25 03:41N 40°37' W 073°47'1 6.4
2018-Jan-25 03:29N 40°36' W 073°48'3 5.8
2018-Jan-25 02:57N 40°35' W 073°52'4 8.1
2018-Jan-25 02:30N 40°34' W 073°56'4 7.1
2018-Jan-25 02:00N 40°34' W 074°01'4 8.2
2018-Jan-25 01:30N 40°38' W 074°03'2 4.6
2018-Jan-25 01:00N 40°40' W 074°01'0 0.0
2018-Jan-25 00:30N 40°40' W 074°01'0 0.0
2018-Jan-25 00:00N 40°40' W 074°01'0 0.0
2018-Jan-24 23:30N 40°40' W 074°01'0 1.0
2018-Jan-24 23:00N 40°40' W 074°01'0 0.9
2018-Jan-24 22:30N 40°40' W 074°01'1 1.9
2018-Jan-24 22:00N 40°40' W 074°00'1 1.1
2018-Jan-24 21:30N 40°40' W 074°01'2 4.5
2018-Jan-24 21:00N 40°40' W 074°04'3 6.4
2018-Jan-24 20:30N 40°39' W 074°08'1 2.3
2018-Jan-24 19:59N 40°38' W 074°09'3 5.7
2018-Jan-24 19:30N 40°37' W 074°12'1 0.7
2018-Jan-24 18:41N 40°36' W 074°12'0 0.0
2018-Jan-24 18:23N 40°36' W 074°12'2 4.8
2018-Jan-24 18:00N 40°38' W 074°12'3 6.7
2018-Jan-24 17:30N 40°39' W 074°08'4 7.3
2018-Jan-24 17:00N 40°40' W 074°03'2 0.1
2018-Jan-23 23:51N 40°40' W 074°01'1 2.4
2018-Jan-23 23:30N 40°40' W 074°02'1 1.9
2018-Jan-23 23:00N 40°40' W 074°03'2 4.2
2018-Jan-23 22:30N 40°39' W 074°05'3 5.1
2018-Jan-23 22:00N 40°38' W 074°09'0 0.4
2018-Jan-23 21:30N 40°38' W 074°09'3 5.5
2018-Jan-23 21:00N 40°39' W 074°05'3 6.5
2018-Jan-23 20:30N 40°40' W 074°01'3 5.0
2018-Jan-23 20:00N 40°42' W 073°59'4 7.6
2018-Jan-23 19:30N 40°46' W 073°57'4 6.2
2018-Jan-23 18:49N 40°48' W 073°52'2 5.8
2018-Jan-23 18:28N 40°48' W 073°50'2 1.5
2018-Jan-23 17:05N 40°49' W 073°47'1 5.9
2018-Jan-23 16:55N 40°48' W 073°47'3 6.5
2018-Jan-23 16:29N 40°48' W 073°51'4 7.9
2018-Jan-23 16:00N 40°47' W 073°56'5 9.3
2018-Jan-23 15:30N 40°43' W 073°58'3 6.1
2018-Jan-23 15:00N 40°40' W 074°01'0 0.0
2018-Jan-23 14:30N 40°40' W 074°01'0 0.0
2018-Jan-23 14:00N 40°40' W 074°01'0 0.0
2018-Jan-23 13:30N 40°40' W 074°01'0 0.0
2018-Jan-23 12:59N 40°40' W 074°01'0 0.0
2018-Jan-23 12:30N 40°40' W 074°01'0 0.0
2018-Jan-23 12:00N 40°40' W 074°01'0 0.0
2018-Jan-23 11:30N 40°40' W 074°01'0 0.0
2018-Jan-23 11:00N 40°40' W 074°01'0 0.0
2018-Jan-23 10:30N 40°40' W 074°01'0 0.0
2018-Jan-23 10:00N 40°40' W 074°01'0 0.0
2018-Jan-23 09:30N 40°40' W 074°01'0 0.0
2018-Jan-23 09:00N 40°40' W 074°01'0 0.0
2018-Jan-23 08:31N 40°40' W 074°01'0 0.0
2018-Jan-23 08:00N 40°40' W 074°01'0 0.0
2018-Jan-23 07:30N 40°40' W 074°01'0 0.0
2018-Jan-23 07:00N 40°40' W 074°01'0 0.0
2018-Jan-23 06:31N 40°40' W 074°01'0 0.0
2018-Jan-23 06:01N 40°40' W 074°01'0 0.0
2018-Jan-23 05:30N 40°40' W 074°01'0 0.0
2018-Jan-23 05:01N 40°40' W 074°01'0 0.0
2018-Jan-23 04:30N 40°40' W 074°01'0 0.0
2018-Jan-23 04:00N 40°40' W 074°01'0 0.0
2018-Jan-23 03:30N 40°40' W 074°01'0 0.0
2018-Jan-23 03:01N 40°40' W 074°01'0 0.0
2018-Jan-23 02:30N 40°40' W 074°01'0 0.0
2018-Jan-23 02:00N 40°40' W 074°01'0 0.1
2018-Jan-23 01:30N 40°40' W 074°01'0 0.0
2018-Jan-23 01:00N 40°40' W 074°01'0 0.0
2018-Jan-23 00:30N 40°40' W 074°01'0 0.0
2018-Jan-23 00:00N 40°40' W 074°01'0 0.0
2018-Jan-22 23:30N 40°40' W 074°01'0 0.0
2018-Jan-22 23:00N 40°40' W 074°01'0 0.0
2018-Jan-22 22:30N 40°40' W 074°01'0 0.0
2018-Jan-22 22:00N 40°40' W 074°01'0 0.0
2018-Jan-22 21:30N 40°40' W 074°01'0 0.0
2018-Jan-22 21:00N 40°40' W 074°01'0 0.0
2018-Jan-22 20:30N 40°40' W 074°01'0 0.0
2018-Jan-22 20:00N 40°40' W 074°01'0 0.0
2018-Jan-22 19:31N 40°40' W 074°01'0 0.0
2018-Jan-22 19:00N 40°40' W 074°01'0 0.0
2018-Jan-22 18:30N 40°40' W 074°01'0 0.0
2018-Jan-22 18:00N 40°40' W 074°01'0 0.0
2018-Jan-22 17:30N 40°40' W 074°01'0 0.0
2018-Jan-22 17:00N 40°40' W 074°01'  
Track history (hours):
 
Tides and Currents Weather Stations Pressure Air Temp Water Temp Dewpoint Dewpoint Depression Visibility Wind Speed Wind Dir Waves Ship Positions

Cmt Otter

Owner: Coeymans Marine Towing, Coeymans, NY. More information available from US FCC via Universal Licensing System and Coast Guard Vessel Documentation Center.

Last reported at 2018-Feb-01 16:35 UTC. Time now 2018-Feb-24 13:46 UTC.
Position N 40°40' W 074°01'.
Warning: this ship's position is 22 days out of date.

Length 20 m; draft 3 m.

Type: Towing. MMSI: 367740640.

Date/timePositionNaut miles runAvg speedWind from/ knotsBaromVisibWave heightAir tempDewpointWater temp
2018-Feb-01 16:35N 40°40' W 074°01'0 0.0
2018-Feb-01 16:30N 40°40' W 074°01'1 1.8
2018-Feb-01 16:00N 40°40' W 074°02'2 3.1
2018-Feb-01 15:30N 40°41' W 074°01'3 5.9
2018-Feb-01 15:00N 40°43' W 073°58'  
2018-Jan-25 14:18N 40°40' W 074°01'0 1.4
2018-Jan-25 14:00N 40°40' W 074°00'0 0.0
2018-Jan-25 13:30N 40°40' W 074°00'1 1.6
2018-Jan-25 13:00N 40°40' W 074°01'0 0.8
2018-Jan-25 12:30N 40°40' W 074°01'0 0.0
2018-Jan-25 12:00N 40°40' W 074°01'0 0.0
2018-Jan-25 11:30N 40°40' W 074°01'1 2.3
2018-Jan-25 11:00N 40°39' W 074°02'0 0.0
2018-Jan-25 10:30N 40°39' W 074°02'1 1.1
2018-Jan-25 10:00N 40°39' W 074°02'2 4.2
2018-Jan-25 09:30N 40°37' W 074°03'2 4.7
2018-Jan-25 08:59N 40°35' W 074°01'3 4.4
2018-Jan-25 08:22N 40°34' W 073°58'3 6.8
2018-Jan-25 07:57N 40°34' W 073°54'6 1.4
2018-Jan-25 03:41N 40°37' W 073°47'1 6.4
2018-Jan-25 03:29N 40°36' W 073°48'3 5.8
2018-Jan-25 02:57N 40°35' W 073°52'4 8.1
2018-Jan-25 02:30N 40°34' W 073°56'4 7.1
2018-Jan-25 02:00N 40°34' W 074°01'4 8.2
2018-Jan-25 01:30N 40°38' W 074°03'2 4.6
2018-Jan-25 01:00N 40°40' W 074°01'0 0.0
2018-Jan-25 00:30N 40°40' W 074°01'0 0.0
2018-Jan-25 00:00N 40°40' W 074°01'0 0.0
2018-Jan-24 23:30N 40°40' W 074°01'0 1.0
2018-Jan-24 23:00N 40°40' W 074°01'0 0.9
2018-Jan-24 22:30N 40°40' W 074°01'1 1.9
2018-Jan-24 22:00N 40°40' W 074°00'1 1.1
2018-Jan-24 21:30N 40°40' W 074°01'2 4.5
2018-Jan-24 21:00N 40°40' W 074°04'3 6.4
2018-Jan-24 20:30N 40°39' W 074°08'1 2.3
2018-Jan-24 19:59N 40°38' W 074°09'3 5.7
2018-Jan-24 19:30N 40°37' W 074°12'1 0.7
2018-Jan-24 18:41N 40°36' W 074°12'0 0.0
2018-Jan-24 18:23N 40°36' W 074°12'2 4.8
2018-Jan-24 18:00N 40°38' W 074°12'3 6.7
2018-Jan-24 17:30N 40°39' W 074°08'4 7.3
2018-Jan-24 17:00N 40°40' W 074°03'2 0.1
2018-Jan-23 23:51N 40°40' W 074°01'1 2.4
2018-Jan-23 23:30N 40°40' W 074°02'1 1.9
2018-Jan-23 23:00N 40°40' W 074°03'2 4.2
2018-Jan-23 22:30N 40°39' W 074°05'3 5.1
2018-Jan-23 22:00N 40°38' W 074°09'0 0.4
2018-Jan-23 21:30N 40°38' W 074°09'3 5.5
2018-Jan-23 21:00N 40°39' W 074°05'3 6.5
2018-Jan-23 20:30N 40°40' W 074°01'3 5.0
2018-Jan-23 20:00N 40°42' W 073°59'4 7.6
2018-Jan-23 19:30N 40°46' W 073°57'4 6.2
2018-Jan-23 18:49N 40°48' W 073°52'2 5.8
2018-Jan-23 18:28N 40°48' W 073°50'2 1.5
2018-Jan-23 17:05N 40°49' W 073°47'1 5.9
2018-Jan-23 16:55N 40°48' W 073°47'3 6.5
2018-Jan-23 16:29N 40°48' W 073°51'4 7.9
2018-Jan-23 16:00N 40°47' W 073°56'5 9.3
2018-Jan-23 15:30N 40°43' W 073°58'3 6.1
2018-Jan-23 15:00N 40°40' W 074°01'0 0.0
2018-Jan-23 14:30N 40°40' W 074°01'0 0.0
2018-Jan-23 14:00N 40°40' W 074°01'0 0.0
2018-Jan-23 13:30N 40°40' W 074°01'0 0.0
2018-Jan-23 12:59N 40°40' W 074°01'0 0.0
2018-Jan-23 12:30N 40°40' W 074°01'0 0.0
2018-Jan-23 12:00N 40°40' W 074°01'0 0.0
2018-Jan-23 11:30N 40°40' W 074°01'0 0.0
2018-Jan-23 11:00N 40°40' W 074°01'0 0.0
2018-Jan-23 10:30N 40°40' W 074°01'0 0.0
2018-Jan-23 10:00N 40°40' W 074°01'0 0.0
2018-Jan-23 09:30N 40°40' W 074°01'0 0.0
2018-Jan-23 09:00N 40°40' W 074°01'0 0.0
2018-Jan-23 08:31N 40°40' W 074°01'0 0.0
2018-Jan-23 08:00N 40°40' W 074°01'0 0.0
2018-Jan-23 07:30N 40°40' W 074°01'0 0.0
2018-Jan-23 07:00N 40°40' W 074°01'0 0.0
2018-Jan-23 06:31N 40°40' W 074°01'0 0.0
2018-Jan-23 06:01N 40°40' W 074°01'0 0.0
2018-Jan-23 05:30N 40°40' W 074°01'0 0.0
2018-Jan-23 05:01N 40°40' W 074°01'0 0.0
2018-Jan-23 04:30N 40°40' W 074°01'0 0.0
2018-Jan-23 04:00N 40°40' W 074°01'0 0.0
2018-Jan-23 03:30N 40°40' W 074°01'0 0.0
2018-Jan-23 03:01N 40°40' W 074°01'0 0.0
2018-Jan-23 02:30N 40°40' W 074°01'0 0.0
2018-Jan-23 02:00N 40°40' W 074°01'0 0.1
2018-Jan-23 01:30N 40°40' W 074°01'0 0.0
2018-Jan-23 01:00N 40°40' W 074°01'0 0.0
2018-Jan-23 00:30N 40°40' W 074°01'0 0.0
2018-Jan-23 00:00N 40°40' W 074°01'0 0.0
2018-Jan-22 23:30N 40°40' W 074°01'0 0.0
2018-Jan-22 23:00N 40°40' W 074°01'0 0.0
2018-Jan-22 22:30N 40°40' W 074°01'0 0.0
2018-Jan-22 22:00N 40°40' W 074°01'0 0.0
2018-Jan-22 21:30N 40°40' W 074°01'0 0.0
2018-Jan-22 21:00N 40°40' W 074°01'0 0.0
2018-Jan-22 20:30N 40°40' W 074°01'0 0.0
2018-Jan-22 20:00N 40°40' W 074°01'0 0.0
2018-Jan-22 19:31N 40°40' W 074°01'0 0.0
2018-Jan-22 19:00N 40°40' W 074°01'0 0.0
2018-Jan-22 18:30N 40°40' W 074°01'0 0.0
2018-Jan-22 18:00N 40°40' W 074°01'0 0.0
2018-Jan-22 17:30N 40°40' W 074°01'0 0.0
2018-Jan-22 17:00N 40°40' W 074°01'  

Dump ship's entire track history